sensor_id;sensor_type;location;lat;lon;timestamp;P1;durP1;ratioP1;P2;durP2;ratioP2
2480;SDS011;57396;48.742;9.128;2024-03-25T00:00:43;2.83;;;2.10;;
2480;SDS011;57396;48.742;9.128;2024-03-25T00:03:08;4.93;;;2.43;;
2480;SDS011;57396;48.742;9.128;2024-03-25T00:05:34;3.30;;;2.57;;
2480;SDS011;57396;48.742;9.128;2024-03-25T00:07:59;2.80;;;2.33;;
2480;SDS011;57396;48.742;9.128;2024-03-25T00:10:25;4.97;;;2.70;;
2480;SDS011;57396;48.742;9.128;2024-03-25T00:12:50;6.77;;;3.00;;
2480;SDS011;57396;48.742;9.128;2024-03-25T00:15:19;4.70;;;2.23;;
2480;SDS011;57396;48.742;9.128;2024-03-25T00:17:46;7.20;;;2.53;;
2480;SDS011;57396;48.742;9.128;2024-03-25T00:20:12;4.27;;;2.60;;
2480;SDS011;57396;48.742;9.128;2024-03-25T00:22:38;4.30;;;2.77;;
2480;SDS011;57396;48.742;9.128;2024-03-25T00:25:04;5.40;;;2.90;;
2480;SDS011;57396;48.742;9.128;2024-03-25T00:27:30;2.73;;;2.33;;
2480;SDS011;57396;48.742;9.128;2024-03-25T00:29:55;5.40;;;3.03;;
2480;SDS011;57396;48.742;9.128;2024-03-25T00:32:21;2.87;;;2.57;;
2480;SDS011;57396;48.742;9.128;2024-03-25T00:34:46;3.60;;;2.60;;
2480;SDS011;57396;48.742;9.128;2024-03-25T00:37:12;8.17;;;3.20;;
2480;SDS011;57396;48.742;9.128;2024-03-25T00:39:37;4.30;;;2.77;;
2480;SDS011;57396;48.742;9.128;2024-03-25T00:42:03;4.67;;;2.70;;
2480;SDS011;57396;48.742;9.128;2024-03-25T00:44:29;4.50;;;2.80;;
2480;SDS011;57396;48.742;9.128;2024-03-25T00:46:54;7.30;;;2.67;;
2480;SDS011;57396;48.742;9.128;2024-03-25T00:49:20;6.70;;;2.80;;
2480;SDS011;57396;48.742;9.128;2024-03-25T00:51:47;5.40;;;2.50;;
2480;SDS011;57396;48.742;9.128;2024-03-25T00:54:12;3.90;;;2.63;;
2480;SDS011;57396;48.742;9.128;2024-03-25T00:56:38;6.80;;;2.80;;
2480;SDS011;57396;48.742;9.128;2024-03-25T00:59:03;4.10;;;2.70;;
2480;SDS011;57396;48.742;9.128;2024-03-25T01:01:29;5.43;;;2.67;;
2480;SDS011;57396;48.742;9.128;2024-03-25T01:03:55;4.67;;;2.70;;
2480;SDS011;57396;48.742;9.128;2024-03-25T01:06:20;5.20;;;2.97;;
2480;SDS011;57396;48.742;9.128;2024-03-25T01:08:46;5.23;;;2.77;;
2480;SDS011;57396;48.742;9.128;2024-03-25T01:11:11;6.00;;;2.90;;
2480;SDS011;57396;48.742;9.128;2024-03-25T01:13:36;3.17;;;2.70;;
2480;SDS011;57396;48.742;9.128;2024-03-25T01:16:02;5.30;;;2.40;;
2480;SDS011;57396;48.742;9.128;2024-03-25T01:18:27;4.50;;;2.63;;
2480;SDS011;57396;48.742;9.128;2024-03-25T01:20:53;5.53;;;3.00;;
2480;SDS011;57396;48.742;9.128;2024-03-25T01:23:19;4.50;;;2.53;;
2480;SDS011;57396;48.742;9.128;2024-03-25T01:25:45;6.60;;;2.87;;
2480;SDS011;57396;48.742;9.128;2024-03-25T01:28:10;3.00;;;2.53;;
2480;SDS011;57396;48.742;9.128;2024-03-25T01:30:36;6.00;;;3.03;;
2480;SDS011;57396;48.742;9.128;2024-03-25T01:33:04;5.50;;;2.73;;
2480;SDS011;57396;48.742;9.128;2024-03-25T01:35:30;5.00;;;2.80;;
2480;SDS011;57396;48.742;9.128;2024-03-25T01:37:56;6.70;;;3.17;;
2480;SDS011;57396;48.742;9.128;2024-03-25T01:40:21;3.30;;;2.83;;
2480;SDS011;57396;48.742;9.128;2024-03-25T01:42:59;4.80;;;3.00;;
2480;SDS011;57396;48.742;9.128;2024-03-25T01:45:26;5.77;;;3.13;;
2480;SDS011;57396;48.742;9.128;2024-03-25T01:47:53;4.07;;;3.13;;
2480;SDS011;57396;48.742;9.128;2024-03-25T01:50:19;3.30;;;2.60;;
2480;SDS011;57396;48.742;9.128;2024-03-25T01:52:45;6.00;;;2.90;;
2480;SDS011;57396;48.742;9.128;2024-03-25T01:55:12;4.33;;;3.00;;
2480;SDS011;57396;48.742;9.128;2024-03-25T01:57:42;3.37;;;2.80;;
2480;SDS011;57396;48.742;9.128;2024-03-25T02:00:08;3.83;;;2.80;;
2480;SDS011;57396;48.742;9.128;2024-03-25T02:02:34;4.23;;;3.10;;
2480;SDS011;57396;48.742;9.128;2024-03-25T02:05:02;5.10;;;3.00;;
2480;SDS011;57396;48.742;9.128;2024-03-25T02:07:28;6.13;;;2.80;;
2480;SDS011;57396;48.742;9.128;2024-03-25T02:09:54;4.13;;;3.00;;
2480;SDS011;57396;48.742;9.128;2024-03-25T02:12:20;4.00;;;2.70;;
2480;SDS011;57396;48.742;9.128;2024-03-25T02:14:46;3.73;;;2.87;;
2480;SDS011;57396;48.742;9.128;2024-03-25T02:17:12;6.67;;;2.60;;
2480;SDS011;57396;48.742;9.128;2024-03-25T02:19:37;5.60;;;3.30;;
2480;SDS011;57396;48.742;9.128;2024-03-25T02:22:04;7.27;;;3.40;;
2480;SDS011;57396;48.742;9.128;2024-03-25T02:24:29;5.83;;;2.90;;
2480;SDS011;57396;48.742;9.128;2024-03-25T02:26:56;6.80;;;2.80;;
2480;SDS011;57396;48.742;9.128;2024-03-25T02:29:21;5.20;;;3.10;;
2480;SDS011;57396;48.742;9.128;2024-03-25T02:31:47;4.67;;;2.60;;
2480;SDS011;57396;48.742;9.128;2024-03-25T02:34:13;6.10;;;2.70;;
2480;SDS011;57396;48.742;9.128;2024-03-25T02:36:38;11.03;;;3.20;;
2480;SDS011;57396;48.742;9.128;2024-03-25T02:39:04;4.63;;;2.80;;
2480;SDS011;57396;48.742;9.128;2024-03-25T02:41:30;7.80;;;3.23;;
2480;SDS011;57396;48.742;9.128;2024-03-25T02:43:56;7.47;;;3.00;;
2480;SDS011;57396;48.742;9.128;2024-03-25T02:46:22;7.47;;;2.93;;
2480;SDS011;57396;48.742;9.128;2024-03-25T02:48:47;5.13;;;3.70;;
2480;SDS011;57396;48.742;9.128;2024-03-25T02:51:13;4.03;;;3.00;;
2480;SDS011;57396;48.742;9.128;2024-03-25T02:53:38;4.93;;;2.83;;
2480;SDS011;57396;48.742;9.128;2024-03-25T02:56:04;4.40;;;3.30;;
2480;SDS011;57396;48.742;9.128;2024-03-25T02:58:29;4.83;;;2.60;;
2480;SDS011;57396;48.742;9.128;2024-03-25T03:00:55;5.90;;;3.10;;
2480;SDS011;57396;48.742;9.128;2024-03-25T03:03:20;8.90;;;2.80;;
2480;SDS011;57396;48.742;9.128;2024-03-25T03:05:46;4.30;;;2.93;;
2480;SDS011;57396;48.742;9.128;2024-03-25T03:08:11;6.37;;;3.10;;
2480;SDS011;57396;48.742;9.128;2024-03-25T03:10:36;4.87;;;3.33;;
2480;SDS011;57396;48.742;9.128;2024-03-25T03:13:02;3.40;;;2.70;;
2480;SDS011;57396;48.742;9.128;2024-03-25T03:15:27;4.20;;;3.43;;
2480;SDS011;57396;48.742;9.128;2024-03-25T03:17:53;3.80;;;2.97;;
2480;SDS011;57396;48.742;9.128;2024-03-25T03:20:18;6.80;;;3.20;;
2480;SDS011;57396;48.742;9.128;2024-03-25T03:22:44;3.83;;;2.80;;
2480;SDS011;57396;48.742;9.128;2024-03-25T03:25:09;6.07;;;3.13;;
2480;SDS011;57396;48.742;9.128;2024-03-25T03:27:35;3.50;;;2.97;;
2480;SDS011;57396;48.742;9.128;2024-03-25T03:30:03;5.23;;;2.60;;
2480;SDS011;57396;48.742;9.128;2024-03-25T03:33:03;6.90;;;3.63;;
2480;SDS011;57396;48.742;9.128;2024-03-25T03:35:29;4.33;;;3.07;;
2480;SDS011;57396;48.742;9.128;2024-03-25T03:37:58;5.73;;;3.30;;
2480;SDS011;57396;48.742;9.128;2024-03-25T03:40:23;5.77;;;3.20;;
2480;SDS011;57396;48.742;9.128;2024-03-25T03:42:48;6.63;;;3.37;;
2480;SDS011;57396;48.742;9.128;2024-03-25T03:45:14;7.10;;;3.20;;
2480;SDS011;57396;48.742;9.128;2024-03-25T03:47:39;5.90;;;3.50;;
2480;SDS011;57396;48.742;9.128;2024-03-25T03:50:06;8.00;;;3.83;;
2480;SDS011;57396;48.742;9.128;2024-03-25T03:52:32;6.13;;;3.23;;
2480;SDS011;57396;48.742;9.128;2024-03-25T03:54:58;4.03;;;3.10;;
2480;SDS011;57396;48.742;9.128;2024-03-25T03:57:23;4.57;;;3.00;;
2480;SDS011;57396;48.742;9.128;2024-03-25T03:59:51;5.07;;;3.40;;
2480;SDS011;57396;48.742;9.128;2024-03-25T04:02:16;4.93;;;2.80;;
2480;SDS011;57396;48.742;9.128;2024-03-25T04:04:42;7.10;;;3.37;;
2480;SDS011;57396;48.742;9.128;2024-03-25T04:07:07;4.00;;;2.70;;
2480;SDS011;57396;48.742;9.128;2024-03-25T04:09:32;7.10;;;3.23;;
2480;SDS011;57396;48.742;9.128;2024-03-25T04:11:58;7.73;;;3.60;;
2480;SDS011;57396;48.742;9.128;2024-03-25T04:14:23;4.00;;;3.20;;
2480;SDS011;57396;48.742;9.128;2024-03-25T04:16:49;4.50;;;3.50;;
2480;SDS011;57396;48.742;9.128;2024-03-25T04:19:16;9.20;;;3.53;;
2480;SDS011;57396;48.742;9.128;2024-03-25T04:21:42;5.23;;;3.43;;
2480;SDS011;57396;48.742;9.128;2024-03-25T04:24:07;6.27;;;3.47;;
2480;SDS011;57396;48.742;9.128;2024-03-25T04:26:33;5.77;;;3.47;;
2480;SDS011;57396;48.742;9.128;2024-03-25T04:28:59;4.87;;;3.30;;
2480;SDS011;57396;48.742;9.128;2024-03-25T04:31:24;7.47;;;3.67;;
2480;SDS011;57396;48.742;9.128;2024-03-25T04:33:50;5.53;;;3.13;;
2480;SDS011;57396;48.742;9.128;2024-03-25T04:36:15;6.20;;;3.17;;
2480;SDS011;57396;48.742;9.128;2024-03-25T04:38:41;6.87;;;3.83;;
2480;SDS011;57396;48.742;9.128;2024-03-25T04:41:06;7.87;;;3.77;;
2480;SDS011;57396;48.742;9.128;2024-03-25T04:43:32;7.00;;;3.53;;
2480;SDS011;57396;48.742;9.128;2024-03-25T04:46:00;3.70;;;3.17;;
2480;SDS011;57396;48.742;9.128;2024-03-25T04:48:26;8.43;;;3.67;;
2480;SDS011;57396;48.742;9.128;2024-03-25T04:50:51;6.33;;;3.60;;
2480;SDS011;57396;48.742;9.128;2024-03-25T04:53:16;8.00;;;3.33;;
2480;SDS011;57396;48.742;9.128;2024-03-25T04:55:42;8.50;;;3.40;;
2480;SDS011;57396;48.742;9.128;2024-03-25T04:58:07;4.60;;;3.07;;
2480;SDS011;57396;48.742;9.128;2024-03-25T05:00:33;7.83;;;4.10;;
2480;SDS011;57396;48.742;9.128;2024-03-25T05:02:58;6.00;;;3.73;;
2480;SDS011;57396;48.742;9.128;2024-03-25T05:05:24;5.43;;;4.10;;
2480;SDS011;57396;48.742;9.128;2024-03-25T05:07:49;7.03;;;3.40;;
2480;SDS011;57396;48.742;9.128;2024-03-25T05:10:15;5.40;;;3.87;;
2480;SDS011;57396;48.742;9.128;2024-03-25T05:12:40;11.37;;;3.90;;
2480;SDS011;57396;48.742;9.128;2024-03-25T05:15:05;9.63;;;3.83;;
2480;SDS011;57396;48.742;9.128;2024-03-25T05:17:31;4.00;;;3.17;;
2480;SDS011;57396;48.742;9.128;2024-03-25T05:19:56;3.53;;;3.20;;
2480;SDS011;57396;48.742;9.128;2024-03-25T05:22:22;6.30;;;3.77;;
2480;SDS011;57396;48.742;9.128;2024-03-25T05:24:47;8.83;;;3.43;;
2480;SDS011;57396;48.742;9.128;2024-03-25T05:27:13;5.70;;;3.50;;
2480;SDS011;57396;48.742;9.128;2024-03-25T05:29:38;5.63;;;4.17;;
2480;SDS011;57396;48.742;9.128;2024-03-25T05:32:04;9.13;;;4.43;;
2480;SDS011;57396;48.742;9.128;2024-03-25T05:34:29;9.77;;;4.37;;
2480;SDS011;57396;48.742;9.128;2024-03-25T05:36:56;6.63;;;3.43;;
2480;SDS011;57396;48.742;9.128;2024-03-25T05:39:22;6.67;;;3.50;;
2480;SDS011;57396;48.742;9.128;2024-03-25T05:41:47;8.00;;;3.80;;
2480;SDS011;57396;48.742;9.128;2024-03-25T05:44:13;7.57;;;4.07;;
2480;SDS011;57396;48.742;9.128;2024-03-25T05:46:39;5.40;;;4.00;;
2480;SDS011;57396;48.742;9.128;2024-03-25T05:49:05;6.67;;;3.70;;
2480;SDS011;57396;48.742;9.128;2024-03-25T05:51:31;4.37;;;3.50;;
2480;SDS011;57396;48.742;9.128;2024-03-25T05:54:00;9.40;;;3.37;;
2480;SDS011;57396;48.742;9.128;2024-03-25T05:56:25;4.80;;;3.70;;
2480;SDS011;57396;48.742;9.128;2024-03-25T05:58:58;5.70;;;3.27;;
2480;SDS011;57396;48.742;9.128;2024-03-25T06:01:24;6.43;;;3.70;;
2480;SDS011;57396;48.742;9.128;2024-03-25T06:03:50;7.10;;;3.80;;
2480;SDS011;57396;48.742;9.128;2024-03-25T06:06:15;9.87;;;4.00;;
2480;SDS011;57396;48.742;9.128;2024-03-25T06:08:41;10.80;;;3.40;;
2480;SDS011;57396;48.742;9.128;2024-03-25T06:11:06;6.33;;;3.77;;
2480;SDS011;57396;48.742;9.128;2024-03-25T06:13:32;9.10;;;3.50;;
2480;SDS011;57396;48.742;9.128;2024-03-25T06:15:58;5.57;;;3.60;;
2480;SDS011;57396;48.742;9.128;2024-03-25T06:18:23;6.10;;;4.17;;
2480;SDS011;57396;48.742;9.128;2024-03-25T06:20:49;5.33;;;4.47;;
2480;SDS011;57396;48.742;9.128;2024-03-25T06:23:24;9.57;;;5.10;;
2480;SDS011;57396;48.742;9.128;2024-03-25T06:25:50;6.40;;;3.50;;
2480;SDS011;57396;48.742;9.128;2024-03-25T06:28:16;6.90;;;3.80;;
2480;SDS011;57396;48.742;9.128;2024-03-25T06:30:42;6.90;;;4.20;;
2480;SDS011;57396;48.742;9.128;2024-03-25T06:33:26;10.20;;;3.90;;
2480;SDS011;57396;48.742;9.128;2024-03-25T06:36:10;6.90;;;3.90;;
2480;SDS011;57396;48.742;9.128;2024-03-25T06:38:35;5.80;;;3.60;;
2480;SDS011;57396;48.742;9.128;2024-03-25T06:41:01;6.23;;;3.57;;
2480;SDS011;57396;48.742;9.128;2024-03-25T06:43:26;7.53;;;3.87;;
2480;SDS011;57396;48.742;9.128;2024-03-25T06:45:51;8.47;;;3.80;;
2480;SDS011;57396;48.742;9.128;2024-03-25T06:48:17;11.43;;;4.50;;
2480;SDS011;57396;48.742;9.128;2024-03-25T06:50:51;10.13;;;4.30;;
2480;SDS011;57396;48.742;9.128;2024-03-25T06:53:20;4.37;;;3.60;;
2480;SDS011;57396;48.742;9.128;2024-03-25T06:55:55;6.07;;;3.63;;
2480;SDS011;57396;48.742;9.128;2024-03-25T06:58:22;10.10;;;4.00;;
2480;SDS011;57396;48.742;9.128;2024-03-25T07:00:48;6.33;;;4.17;;
2480;SDS011;57396;48.742;9.128;2024-03-25T07:03:14;4.87;;;3.40;;
2480;SDS011;57396;48.742;9.128;2024-03-25T07:05:46;5.23;;;4.40;;
2480;SDS011;57396;48.742;9.128;2024-03-25T07:08:12;4.30;;;3.90;;
2480;SDS011;57396;48.742;9.128;2024-03-25T07:10:38;8.00;;;3.97;;
2480;SDS011;57396;48.742;9.128;2024-03-25T07:13:03;6.30;;;3.77;;
2480;SDS011;57396;48.742;9.128;2024-03-25T07:15:30;7.90;;;3.90;;
2480;SDS011;57396;48.742;9.128;2024-03-25T07:17:56;6.27;;;3.43;;
2480;SDS011;57396;48.742;9.128;2024-03-25T07:20:21;7.47;;;4.53;;
2480;SDS011;57396;48.742;9.128;2024-03-25T07:22:47;13.33;;;3.80;;
2480;SDS011;57396;48.742;9.128;2024-03-25T07:25:13;10.63;;;4.10;;
2480;SDS011;57396;48.742;9.128;2024-03-25T07:27:39;6.87;;;3.80;;
2480;SDS011;57396;48.742;9.128;2024-03-25T07:30:06;6.90;;;3.70;;
2480;SDS011;57396;48.742;9.128;2024-03-25T07:32:32;7.37;;;3.20;;
2480;SDS011;57396;48.742;9.128;2024-03-25T07:34:58;5.93;;;3.07;;
2480;SDS011;57396;48.742;9.128;2024-03-25T07:37:23;7.93;;;3.90;;
2480;SDS011;57396;48.742;9.128;2024-03-25T07:39:49;6.50;;;3.70;;
2480;SDS011;57396;48.742;9.128;2024-03-25T07:42:14;9.00;;;3.50;;
2480;SDS011;57396;48.742;9.128;2024-03-25T07:44:40;7.70;;;3.50;;
2480;SDS011;57396;48.742;9.128;2024-03-25T07:47:05;9.53;;;3.80;;
2480;SDS011;57396;48.742;9.128;2024-03-25T07:49:31;5.33;;;3.57;;
2480;SDS011;57396;48.742;9.128;2024-03-25T07:51:59;6.17;;;3.30;;
2480;SDS011;57396;48.742;9.128;2024-03-25T07:54:25;7.37;;;3.60;;
2480;SDS011;57396;48.742;9.128;2024-03-25T07:56:52;7.83;;;3.30;;
2480;SDS011;57396;48.742;9.128;2024-03-25T07:59:17;5.40;;;2.90;;
2480;SDS011;57396;48.742;9.128;2024-03-25T08:01:43;5.50;;;3.27;;
2480;SDS011;57396;48.742;9.128;2024-03-25T08:04:08;6.00;;;2.70;;
2480;SDS011;57396;48.742;9.128;2024-03-25T08:06:34;5.57;;;2.80;;
2480;SDS011;57396;48.742;9.128;2024-03-25T08:08:59;7.90;;;2.80;;
2480;SDS011;57396;48.742;9.128;2024-03-25T08:11:25;5.20;;;2.90;;
2480;SDS011;57396;48.742;9.128;2024-03-25T08:13:50;6.43;;;2.90;;
2480;SDS011;57396;48.742;9.128;2024-03-25T08:16:16;5.30;;;2.70;;
2480;SDS011;57396;48.742;9.128;2024-03-25T08:18:41;3.37;;;2.40;;
2480;SDS011;57396;48.742;9.128;2024-03-25T08:21:06;5.67;;;2.30;;
2480;SDS011;57396;48.742;9.128;2024-03-25T08:23:34;4.83;;;2.00;;
2480;SDS011;57396;48.742;9.128;2024-03-25T08:26:00;6.50;;;1.63;;
2480;SDS011;57396;48.742;9.128;2024-03-25T08:28:26;15.03;;;5.63;;
2480;SDS011;57396;48.742;9.128;2024-03-25T08:30:52;4.63;;;2.40;;
2480;SDS011;57396;48.742;9.128;2024-03-25T08:33:17;3.80;;;1.50;;
2480;SDS011;57396;48.742;9.128;2024-03-25T08:35:42;4.70;;;2.13;;
2480;SDS011;57396;48.742;9.128;2024-03-25T08:38:08;7.67;;;2.60;;
2480;SDS011;57396;48.742;9.128;2024-03-25T08:40:33;4.20;;;1.80;;
2480;SDS011;57396;48.742;9.128;2024-03-25T08:42:59;3.60;;;2.00;;
2480;SDS011;57396;48.742;9.128;2024-03-25T08:45:24;3.27;;;1.53;;
2480;SDS011;57396;48.742;9.128;2024-03-25T08:47:50;3.30;;;2.37;;
2480;SDS011;57396;48.742;9.128;2024-03-25T08:50:15;4.43;;;2.30;;
2480;SDS011;57396;48.742;9.128;2024-03-25T08:52:41;7.07;;;2.20;;
2480;SDS011;57396;48.742;9.128;2024-03-25T08:55:06;6.40;;;1.93;;
2480;SDS011;57396;48.742;9.128;2024-03-25T08:57:32;6.13;;;1.90;;
2480;SDS011;57396;48.742;9.128;2024-03-25T08:59:57;6.50;;;2.00;;
2480;SDS011;57396;48.742;9.128;2024-03-25T09:02:23;2.30;;;1.60;;
2480;SDS011;57396;48.742;9.128;2024-03-25T09:04:48;6.17;;;1.80;;
2480;SDS011;57396;48.742;9.128;2024-03-25T09:07:14;1.90;;;1.60;;
2480;SDS011;57396;48.742;9.128;2024-03-25T09:09:39;3.40;;;2.00;;
2480;SDS011;57396;48.742;9.128;2024-03-25T09:12:24;2.13;;;1.63;;
2480;SDS011;57396;48.742;9.128;2024-03-25T09:14:49;2.40;;;1.70;;
2480;SDS011;57396;48.742;9.128;2024-03-25T09:17:16;3.03;;;1.47;;
2480;SDS011;57396;48.742;9.128;2024-03-25T09:19:42;4.40;;;1.73;;
2480;SDS011;57396;48.742;9.128;2024-03-25T09:22:07;3.80;;;1.30;;
2480;SDS011;57396;48.742;9.128;2024-03-25T09:24:33;2.43;;;1.40;;
2480;SDS011;57396;48.742;9.128;2024-03-25T09:26:58;2.30;;;1.50;;
2480;SDS011;57396;48.742;9.128;2024-03-25T09:29:24;2.30;;;1.40;;
2480;SDS011;57396;48.742;9.128;2024-03-25T09:31:50;3.23;;;1.20;;
2480;SDS011;57396;48.742;9.128;2024-03-25T09:34:15;2.03;;;1.50;;
2480;SDS011;57396;48.742;9.128;2024-03-25T09:36:41;2.53;;;1.20;;
2480;SDS011;57396;48.742;9.128;2024-03-25T09:39:06;1.43;;;1.20;;
2480;SDS011;57396;48.742;9.128;2024-03-25T09:41:32;1.63;;;1.43;;
2480;SDS011;57396;48.742;9.128;2024-03-25T09:44:01;3.83;;;1.70;;
2480;SDS011;57396;48.742;9.128;2024-03-25T09:46:30;2.10;;;1.60;;
2480;SDS011;57396;48.742;9.128;2024-03-25T09:48:55;1.60;;;1.30;;
2480;SDS011;57396;48.742;9.128;2024-03-25T09:51:21;2.33;;;1.40;;
2480;SDS011;57396;48.742;9.128;2024-03-25T09:53:47;3.90;;;1.83;;
2480;SDS011;57396;48.742;9.128;2024-03-25T09:56:12;3.00;;;1.73;;
2480;SDS011;57396;48.742;9.128;2024-03-25T09:58:38;3.37;;;1.70;;
2480;SDS011;57396;48.742;9.128;2024-03-25T10:01:04;3.93;;;1.50;;
2480;SDS011;57396;48.742;9.128;2024-03-25T10:03:30;5.13;;;1.97;;
2480;SDS011;57396;48.742;9.128;2024-03-25T10:05:55;2.53;;;1.70;;
2480;SDS011;57396;48.742;9.128;2024-03-25T10:08:21;4.30;;;1.70;;
2480;SDS011;57396;48.742;9.128;2024-03-25T10:10:46;6.40;;;1.70;;
2480;SDS011;57396;48.742;9.128;2024-03-25T10:13:12;3.60;;;1.70;;
2480;SDS011;57396;48.742;9.128;2024-03-25T10:15:37;3.00;;;1.70;;
2480;SDS011;57396;48.742;9.128;2024-03-25T10:18:03;3.10;;;1.60;;
2480;SDS011;57396;48.742;9.128;2024-03-25T10:20:28;3.40;;;1.60;;
2480;SDS011;57396;48.742;9.128;2024-03-25T10:22:54;2.03;;;1.53;;
2480;SDS011;57396;48.742;9.128;2024-03-25T10:25:23;3.63;;;1.47;;
2480;SDS011;57396;48.742;9.128;2024-03-25T10:27:56;3.60;;;1.73;;
2480;SDS011;57396;48.742;9.128;2024-03-25T10:30:25;2.73;;;1.57;;
2480;SDS011;57396;48.742;9.128;2024-03-25T10:32:57;4.07;;;1.87;;
2480;SDS011;57396;48.742;9.128;2024-03-25T10:35:26;2.90;;;1.67;;
2480;SDS011;57396;48.742;9.128;2024-03-25T10:37:55;2.53;;;1.73;;
2480;SDS011;57396;48.742;9.128;2024-03-25T10:40:25;4.23;;;2.20;;
2480;SDS011;57396;48.742;9.128;2024-03-25T10:42:55;5.43;;;1.83;;
2480;SDS011;57396;48.742;9.128;2024-03-25T10:45:29;3.17;;;1.93;;
2480;SDS011;57396;48.742;9.128;2024-03-25T10:47:58;5.33;;;2.13;;
2480;SDS011;57396;48.742;9.128;2024-03-25T10:50:28;2.80;;;1.83;;
2480;SDS011;57396;48.742;9.128;2024-03-25T10:52:54;4.87;;;1.90;;
2480;SDS011;57396;48.742;9.128;2024-03-25T10:55:24;2.47;;;1.90;;
2480;SDS011;57396;48.742;9.128;2024-03-25T10:57:50;4.10;;;1.87;;
2480;SDS011;57396;48.742;9.128;2024-03-25T11:00:17;3.23;;;2.10;;
2480;SDS011;57396;48.742;9.128;2024-03-25T11:02:42;5.07;;;1.80;;
2480;SDS011;57396;48.742;9.128;2024-03-25T11:05:08;3.93;;;1.93;;
2480;SDS011;57396;48.742;9.128;2024-03-25T11:07:35;3.87;;;1.67;;
2480;SDS011;57396;48.742;9.128;2024-03-25T11:10:03;4.13;;;1.63;;
2480;SDS011;57396;48.742;9.128;2024-03-25T11:12:32;4.00;;;2.13;;
2480;SDS011;57396;48.742;9.128;2024-03-25T11:15:00;3.17;;;1.60;;
2480;SDS011;57396;48.742;9.128;2024-03-25T11:17:27;6.17;;;1.87;;
2480;SDS011;57396;48.742;9.128;2024-03-25T11:19:52;3.90;;;1.70;;
2480;SDS011;57396;48.742;9.128;2024-03-25T11:22:23;3.03;;;2.03;;
2480;SDS011;57396;48.742;9.128;2024-03-25T11:24:49;2.10;;;1.67;;
2480;SDS011;57396;48.742;9.128;2024-03-25T11:27:26;5.50;;;2.27;;
2480;SDS011;57396;48.742;9.128;2024-03-25T11:29:51;6.03;;;1.70;;
2480;SDS011;57396;48.742;9.128;2024-03-25T11:32:17;2.73;;;2.00;;
2480;SDS011;57396;48.742;9.128;2024-03-25T11:34:49;2.87;;;1.67;;
2480;SDS011;57396;48.742;9.128;2024-03-25T11:37:15;1.93;;;1.53;;
2480;SDS011;57396;48.742;9.128;2024-03-25T11:39:41;2.13;;;1.90;;
2480;SDS011;57396;48.742;9.128;2024-03-25T11:42:07;2.10;;;1.63;;
2480;SDS011;57396;48.742;9.128;2024-03-25T11:44:35;3.20;;;1.90;;
2480;SDS011;57396;48.742;9.128;2024-03-25T11:47:03;2.97;;;2.07;;
2480;SDS011;57396;48.742;9.128;2024-03-25T11:49:30;5.33;;;1.90;;
2480;SDS011;57396;48.742;9.128;2024-03-25T11:51:58;2.47;;;1.70;;
2480;SDS011;57396;48.742;9.128;2024-03-25T11:54:26;3.30;;;2.23;;
2480;SDS011;57396;48.742;9.128;2024-03-25T11:56:52;5.13;;;1.87;;
2480;SDS011;57396;48.742;9.128;2024-03-25T11:59:18;4.00;;;2.23;;
2480;SDS011;57396;48.742;9.128;2024-03-25T12:01:44;4.43;;;1.90;;
2480;SDS011;57396;48.742;9.128;2024-03-25T12:04:10;3.37;;;2.10;;
2480;SDS011;57396;48.742;9.128;2024-03-25T12:06:36;2.60;;;1.70;;
2480;SDS011;57396;48.742;9.128;2024-03-25T12:09:02;5.30;;;2.30;;
2480;SDS011;57396;48.742;9.128;2024-03-25T12:11:46;4.23;;;2.30;;
2480;SDS011;57396;48.742;9.128;2024-03-25T12:14:11;3.17;;;2.23;;
2480;SDS011;57396;48.742;9.128;2024-03-25T12:16:37;4.23;;;1.90;;
2480;SDS011;57396;48.742;9.128;2024-03-25T12:19:03;4.30;;;2.07;;
2480;SDS011;57396;48.742;9.128;2024-03-25T12:21:28;5.33;;;2.30;;
2480;SDS011;57396;48.742;9.128;2024-03-25T12:23:56;3.27;;;2.20;;
2480;SDS011;57396;48.742;9.128;2024-03-25T12:26:23;4.43;;;2.10;;
2480;SDS011;57396;48.742;9.128;2024-03-25T12:28:49;3.50;;;2.20;;
2480;SDS011;57396;48.742;9.128;2024-03-25T12:31:14;2.33;;;1.90;;
2480;SDS011;57396;48.742;9.128;2024-03-25T12:33:41;2.63;;;1.90;;
2480;SDS011;57396;48.742;9.128;2024-03-25T12:36:07;2.77;;;2.57;;
2480;SDS011;57396;48.742;9.128;2024-03-25T12:38:33;4.87;;;2.47;;
2480;SDS011;57396;48.742;9.128;2024-03-25T12:41:11;6.07;;;2.10;;
2480;SDS011;57396;48.742;9.128;2024-03-25T12:43:43;4.20;;;2.37;;
2480;SDS011;57396;48.742;9.128;2024-03-25T12:46:09;4.03;;;2.30;;
2480;SDS011;57396;48.742;9.128;2024-03-25T12:48:35;3.60;;;2.00;;
2480;SDS011;57396;48.742;9.128;2024-03-25T12:51:01;3.37;;;1.93;;
2480;SDS011;57396;48.742;9.128;2024-03-25T12:53:27;2.13;;;1.70;;
2480;SDS011;57396;48.742;9.128;2024-03-25T12:55:52;2.80;;;1.80;;
2480;SDS011;57396;48.742;9.128;2024-03-25T12:58:18;3.07;;;2.00;;
2480;SDS011;57396;48.742;9.128;2024-03-25T13:00:43;4.10;;;2.30;;
2480;SDS011;57396;48.742;9.128;2024-03-25T13:03:09;2.20;;;1.80;;
2480;SDS011;57396;48.742;9.128;2024-03-25T13:05:35;4.00;;;2.00;;
2480;SDS011;57396;48.742;9.128;2024-03-25T13:08:01;2.93;;;1.67;;
2480;SDS011;57396;48.742;9.128;2024-03-25T13:10:27;2.77;;;1.40;;
2480;SDS011;57396;48.742;9.128;2024-03-25T13:12:53;1.80;;;1.70;;
2480;SDS011;57396;48.742;9.128;2024-03-25T13:15:18;4.30;;;1.87;;
2480;SDS011;57396;48.742;9.128;2024-03-25T13:17:44;2.60;;;1.70;;
2480;SDS011;57396;48.742;9.128;2024-03-25T13:20:09;3.47;;;1.97;;
2480;SDS011;57396;48.742;9.128;2024-03-25T13:22:35;3.13;;;2.10;;
2480;SDS011;57396;48.742;9.128;2024-03-25T13:25:00;3.33;;;2.20;;
2480;SDS011;57396;48.742;9.128;2024-03-25T13:27:26;3.00;;;1.70;;
2480;SDS011;57396;48.742;9.128;2024-03-25T13:29:51;2.67;;;1.63;;
2480;SDS011;57396;48.742;9.128;2024-03-25T13:32:20;3.90;;;2.00;;
2480;SDS011;57396;48.742;9.128;2024-03-25T13:34:46;2.90;;;2.00;;
2480;SDS011;57396;48.742;9.128;2024-03-25T13:37:12;2.83;;;1.80;;
2480;SDS011;57396;48.742;9.128;2024-03-25T13:39:38;6.07;;;2.40;;
2480;SDS011;57396;48.742;9.128;2024-03-25T13:42:04;9.03;;;2.50;;
2480;SDS011;57396;48.742;9.128;2024-03-25T13:44:30;3.70;;;2.07;;
2480;SDS011;57396;48.742;9.128;2024-03-25T13:46:55;7.83;;;2.20;;
2480;SDS011;57396;48.742;9.128;2024-03-25T13:49:20;2.70;;;2.20;;
2480;SDS011;57396;48.742;9.128;2024-03-25T13:51:47;3.10;;;1.90;;
2480;SDS011;57396;48.742;9.128;2024-03-25T13:54:13;3.97;;;2.33;;
2480;SDS011;57396;48.742;9.128;2024-03-25T13:56:39;2.47;;;1.90;;
2480;SDS011;57396;48.742;9.128;2024-03-25T13:59:07;3.10;;;2.00;;
2480;SDS011;57396;48.742;9.128;2024-03-25T14:01:32;3.80;;;2.17;;
2480;SDS011;57396;48.742;9.128;2024-03-25T14:03:57;3.20;;;1.90;;
2480;SDS011;57396;48.742;9.128;2024-03-25T14:06:23;2.20;;;2.00;;
2480;SDS011;57396;48.742;9.128;2024-03-25T14:08:48;5.40;;;2.60;;
2480;SDS011;57396;48.742;9.128;2024-03-25T14:11:14;3.00;;;1.60;;
2480;SDS011;57396;48.742;9.128;2024-03-25T14:13:39;3.30;;;2.63;;
2480;SDS011;57396;48.742;9.128;2024-03-25T14:16:05;2.63;;;2.10;;
2480;SDS011;57396;48.742;9.128;2024-03-25T14:18:31;4.53;;;1.97;;
2480;SDS011;57396;48.742;9.128;2024-03-25T14:20:56;3.43;;;2.20;;
2480;SDS011;57396;48.742;9.128;2024-03-25T14:23:22;3.53;;;1.87;;
2480;SDS011;57396;48.742;9.128;2024-03-25T14:25:47;3.83;;;2.50;;
2480;SDS011;57396;48.742;9.128;2024-03-25T14:28:13;3.83;;;2.27;;
2480;SDS011;57396;48.742;9.128;2024-03-25T14:30:38;3.63;;;2.30;;
2480;SDS011;57396;48.742;9.128;2024-03-25T14:33:04;3.77;;;2.00;;
2480;SDS011;57396;48.742;9.128;2024-03-25T14:35:29;4.10;;;2.30;;
2480;SDS011;57396;48.742;9.128;2024-03-25T14:37:55;2.67;;;2.30;;
2480;SDS011;57396;48.742;9.128;2024-03-25T14:40:20;5.43;;;2.20;;
2480;SDS011;57396;48.742;9.128;2024-03-25T14:42:46;2.97;;;2.10;;
2480;SDS011;57396;48.742;9.128;2024-03-25T14:45:11;2.10;;;1.67;;
2480;SDS011;57396;48.742;9.128;2024-03-25T14:47:37;3.57;;;2.40;;
2480;SDS011;57396;48.742;9.128;2024-03-25T14:50:02;4.20;;;2.10;;
2480;SDS011;57396;48.742;9.128;2024-03-25T14:52:30;3.77;;;2.07;;
2480;SDS011;57396;48.742;9.128;2024-03-25T14:54:55;3.83;;;1.90;;